Time;durP1;ratioP1;P1;durP2;ratioP2;P2;SDS_P1;SDS_P2;PMS_P1;PMS_P2;Temp;Humidity;BMP_temperature;BMP_pressure;BME280_temperature;BME280_humidity;BME280_pressure;Samples;Min_cycle;Max_cycle;Signal;HPM_P1;HPM_P2
2021/04/10 00:01:37;;;;;;;5.22;1.95;;;10.10;73.90;;;;;;5053377;28;20032;-59
2021/04/10 00:04:08;;;;;;;11.07;1.88;;;10.20;74.00;;;;;;5053566;28;20693;-59
2021/04/10 00:06:33;;;;;;;5.00;1.60;;;10.10;73.90;;;;;;5052945;28;20459;-60
2021/04/10 00:09:00;;;;;;;9.68;2.15;;;10.10;73.90;;;;;;5053482;28;20108;-59
2021/04/10 00:11:26;;;;;;;5.78;1.70;;;10.10;74.00;;;;;;5053135;28;20041;-59
2021/04/10 00:13:53;;;;;;;5.68;1.90;;;10.10;74.10;;;;;;5052592;28;20075;-59
2021/04/10 00:16:19;;;;;;;5.35;1.80;;;10.10;74.10;;;;;;5053047;28;20055;-60
2021/04/10 00:18:44;;;;;;;8.52;1.95;;;10.10;74.10;;;;;;5053414;28;20472;-59
2021/04/10 00:21:10;;;;;;;6.78;1.60;;;10.10;74.10;;;;;;5052222;28;20033;-59
2021/04/10 00:23:42;;;;;;;9.18;1.98;;;10.10;74.00;;;;;;5053298;28;20028;-59
2021/04/10 00:26:12;;;;;;;6.45;2.65;;;10.10;74.00;;;;;;5052944;28;20071;-60
2021/04/10 00:28:38;;;;;;;7.93;1.67;;;10.10;74.00;;;;;;5052340;28;20032;-60
2021/04/10 00:31:07;;;;;;;10.40;1.85;;;10.10;73.90;;;;;;5052806;28;20480;-59
2021/04/10 00:33:40;;;;;;;6.15;1.90;;;10.10;73.90;;;;;;5053131;28;20033;-59
2021/04/10 00:36:10;;;;;;;9.57;2.28;;;10.10;73.80;;;;;;5052283;28;20029;-59
2021/04/10 00:38:38;;;;;;;10.02;1.98;;;10.10;74.30;;;;;;5056679;28;20039;-60
2021/04/10 00:41:10;;;;;;;6.07;1.60;;;10.10;73.50;;;;;;5070102;28;20089;-59
2021/04/10 00:43:36;;;;;;;4.50;1.70;;;10.10;73.40;;;;;;5072502;28;20033;-59
2021/04/10 00:46:02;;;;;;;9.20;2.10;;;10.00;73.40;;;;;;5072834;28;20743;-60
2021/04/10 00:48:27;;;;;;;7.35;1.83;;;10.00;73.30;;;;;;5071883;28;20506;-59
2021/04/10 00:50:55;;;;;;;8.18;1.73;;;10.00;73.30;;;;;;5072502;28;20028;-59
2021/04/10 00:53:24;;;;;;;4.25;1.38;;;10.00;73.40;;;;;;5072474;28;20044;-60
2021/04/10 00:55:54;;;;;;;5.07;1.20;;;10.00;73.40;;;;;;5071889;28;20067;-59
2021/04/10 00:58:20;;;;;;;10.23;1.55;;;10.00;73.20;;;;;;5054702;28;20057;-59
2021/04/10 01:00:45;;;;;;;7.38;1.45;;;10.00;73.10;;;;;;5072811;28;20055;-60
2021/04/10 01:03:14;;;;;;;7.03;1.65;;;10.00;73.00;;;;;;5071900;28;20028;-60
2021/04/10 01:05:40;;;;;;;8.70;1.67;;;10.00;73.00;;;;;;5054627;28;20071;-60
2021/04/10 01:08:06;;;;;;;4.78;1.65;;;10.00;73.00;;;;;;5058102;28;20480;-60
2021/04/10 01:10:32;;;;;;;6.20;1.27;;;9.90;72.90;;;;;;5071679;28;20028;-60
2021/04/10 01:13:20;;;;;;;3.47;1.20;;;10.00;73.00;;;;;;5072305;28;20043;-59
2021/04/10 01:16:11;;;;;;;4.50;1.50;;;10.00;73.00;;;;;;5072547;28;20440;-60
2021/04/10 01:18:53;;;;;;;7.90;1.70;;;9.90;73.60;;;;;;5054363;28;20032;-60
2021/04/10 01:21:30;;;;;;;4.13;1.27;;;9.90;72.90;;;;;;5072434;28;20036;-59
2021/04/10 01:24:22;;;;;;;7.45;1.98;;;9.90;72.90;;;;;;5053792;28;20074;-60
2021/04/10 01:27:16;;;;;;;6.18;1.60;;;9.90;72.90;;;;;;5054234;28;20032;-60
2021/04/10 01:29:50;;;;;;;3.45;1.27;;;9.90;72.80;;;;;;5072538;28;20029;-60
2021/04/10 01:32:16;;;;;;;;;;;9.90;72.70;;;;;;5072032;28;20154;-60
2021/04/10 01:35:00;;;;;;;11.02;1.42;;;9.90;72.80;;;;;;5072548;28;19912;-60
2021/04/10 01:37:28;;;;;;;9.15;1.70;;;9.90;72.60;;;;;;5071261;28;20074;-60
2021/04/10 01:40:03;;;;;;;9.63;1.77;;;9.80;72.60;;;;;;5072245;28;20036;-59
2021/04/10 01:42:31;;;;;;;12.10;1.52;;;9.90;72.80;;;;;;5054180;28;20472;-59
2021/04/10 01:45:00;;;;;;;9.20;1.20;;;9.90;72.80;;;;;;5053660;28;20028;-59
2021/04/10 01:47:27;;;;;;;5.65;1.80;;;9.80;72.80;;;;;;5056115;28;20032;-60
2021/04/10 01:49:54;;;;;;;8.90;1.50;;;9.80;72.80;;;;;;5057935;28;20399;-60
2021/04/10 01:52:21;;;;;;;7.25;1.40;;;9.80;72.80;;;;;;5074842;28;20440;-60
2021/04/10 01:54:52;;;;;;;6.80;1.42;;;9.80;72.80;;;;;;5076119;28;20044;-60
2021/04/10 01:57:20;;;;;;;6.88;1.58;;;9.80;72.90;;;;;;5057823;28;20079;-60
2021/04/10 01:59:50;;;;;;;6.57;1.23;;;9.80;72.90;;;;;;5075309;28;20056;-60
2021/04/10 02:02:27;;;;;;;4.78;1.48;;;9.80;73.00;;;;;;5057752;28;20135;-59
2021/04/10 02:04:54;;;;;;;9.63;1.77;;;9.80;73.00;;;;;;5075732;28;20056;-60
2021/04/10 02:07:24;;;;;;;9.27;2.00;;;9.80;73.10;;;;;;5056992;28;20029;-60
2021/04/10 02:09:51;;;;;;;7.75;1.63;;;9.80;73.10;;;;;;5057590;28;20467;-59
2021/04/10 02:12:28;;;;;;;5.85;2.20;;;9.80;73.00;;;;;;5056842;28;20102;-60
2021/04/10 02:15:06;;;;;;;5.68;1.52;;;9.70;72.90;;;;;;5057665;28;20021;-59
2021/04/10 02:17:32;;;;;;;7.10;1.45;;;9.80;73.00;;;;;;5057521;28;20428;-59
2021/04/10 02:20:10;;;;;;;10.18;1.50;;;9.80;73.00;;;;;;5056958;28;20028;-59
2021/04/10 02:22:36;;;;;;;6.35;1.48;;;9.70;73.00;;;;;;5057474;28;20373;-59
2021/04/10 02:25:06;;;;;;;10.35;2.17;;;9.70;73.00;;;;;;5057322;28;20032;-59
2021/04/10 02:27:35;;;;;;;5.32;1.48;;;9.70;73.00;;;;;;5056663;28;20396;-59
2021/04/10 02:30:06;;;;;;;6.65;1.33;;;9.70;72.90;;;;;;5057079;28;20029;-59
2021/04/10 02:32:49;;;;;;;9.30;1.58;;;9.70;72.90;;;;;;5075267;28;20040;-60
2021/04/10 02:35:21;;;;;;;9.18;1.77;;;9.70;73.00;;;;;;5056413;28;20020;-59
2021/04/10 02:37:49;;;;;;;5.70;1.45;;;9.70;73.00;;;;;;5057238;28;20025;-59
2021/04/10 02:40:22;;;;;;;12.05;3.08;;;9.70;73.00;;;;;;5074094;28;20024;-59
2021/04/10 02:42:49;;;;;;;8.90;1.75;;;9.70;72.90;;;;;;5073772;28;20039;-59
2021/04/10 02:45:25;;;;;;;6.50;1.42;;;9.70;72.70;;;;;;5056865;28;20578;-59
2021/04/10 02:48:12;;;;;;;7.82;2.08;;;9.70;72.60;;;;;;5056253;28;20025;-60
2021/04/10 02:50:40;;;;;;;14.35;1.33;;;9.70;72.60;;;;;;5056769;28;20035;-60
2021/04/10 02:53:10;;;;;;;11.85;2.17;;;9.70;72.50;;;;;;5070788;28;20091;-59
2021/04/10 02:55:43;;;;;;;7.13;1.80;;;9.70;72.40;;;;;;5092895;28;20031;-59
2021/04/10 02:58:14;;;;;;;5.47;1.65;;;9.60;72.30;;;;;;5094086;28;20021;-59
2021/04/10 03:00:45;;;;;;;7.28;1.48;;;9.60;72.20;;;;;;5093635;28;20420;-59
2021/04/10 03:03:15;;;;;;;7.05;1.70;;;9.60;72.10;;;;;;5092994;28;20110;-59
2021/04/10 03:05:44;;;;;;;8.38;2.50;;;9.50;72.00;;;;;;5093673;28;20040;-59
2021/04/10 03:08:15;;;;;;;10.50;1.77;;;9.50;71.90;;;;;;5093293;28;20024;-59
2021/04/10 03:10:46;;;;;;;7.85;1.90;;;9.50;72.50;;;;;;5094248;28;20112;-60
2021/04/10 03:13:13;;;;;;;8.18;1.60;;;9.50;71.80;;;;;;5093150;28;20487;-59
2021/04/10 03:15:41;;;;;;;6.43;1.67;;;9.50;71.80;;;;;;5092763;28;20483;-59
2021/04/10 03:18:10;;;;;;;7.78;1.75;;;9.50;71.70;;;;;;5093108;28;20474;-59
2021/04/10 03:20:41;;;;;;;6.45;1.33;;;9.50;71.60;;;;;;5093512;28;20375;-59
2021/04/10 03:23:10;;;;;;;8.70;1.85;;;9.50;71.60;;;;;;5092379;28;20039;-59
2021/04/10 03:25:39;;;;;;;9.98;1.58;;;9.50;71.60;;;;;;5093236;28;20024;-59
2021/04/10 03:28:10;;;;;;;8.38;2.35;;;9.40;71.40;;;;;;5093075;28;20473;-59
2021/04/10 03:30:40;;;;;;;6.30;1.55;;;9.40;71.30;;;;;;5092470;28;20028;-60
2021/04/10 03:33:09;;;;;;;3.90;1.02;;;9.40;71.20;;;;;;5092813;28;20048;-59
2021/04/10 03:35:35;;;;;;;5.90;1.73;;;9.40;71.20;;;;;;5093066;28;20030;-59
2021/04/10 03:38:04;;;;;;;3.95;1.00;;;9.40;71.10;;;;;;5093578;28;20082;-59
2021/04/10 03:40:34;;;;;;;5.43;1.35;;;9.30;71.00;;;;;;5092849;28;20033;-59
2021/04/10 03:43:00;;;;;;;3.92;1.27;;;9.30;71.00;;;;;;5092872;28;20383;-60
2021/04/10 03:45:33;;;;;;;5.07;1.50;;;9.30;71.00;;;;;;5076268;28;20028;-59
2021/04/10 03:48:03;;;;;;;7.78;1.35;;;9.30;70.90;;;;;;5092583;28;20123;-59
2021/04/10 03:50:44;;;;;;;7.93;1.70;;;9.20;70.80;;;;;;5093187;28;20054;-59
2021/04/10 03:53:10;;;;;;;6.90;1.40;;;9.20;70.70;;;;;;5088652;28;20064;-59
2021/04/10 03:55:36;;;;;;;7.03;1.38;;;9.20;70.60;;;;;;5041346;28;20392;-59
2021/04/10 03:58:04;;;;;;;5.63;1.38;;;9.20;70.60;;;;;;5055004;28;20127;-59
2021/04/10 04:00:32;;;;;;;9.93;1.27;;;9.20;70.60;;;;;;5073440;28;20472;-60
2021/04/10 04:03:02;;;;;;;6.93;1.30;;;9.10;70.60;;;;;;5073349;28;20048;-59
2021/04/10 04:05:27;;;;;;;13.40;1.30;;;9.10;70.60;;;;;;5072668;28;20059;-59
2021/04/10 04:07:53;;;;;;;5.80;1.48;;;9.10;70.60;;;;;;5073498;28;20029;-59
2021/04/10 04:10:19;;;;;;;5.50;1.27;;;9.00;70.60;;;;;;5073467;28;20480;-59
2021/04/10 04:12:45;;;;;;;10.00;1.42;;;9.00;70.60;;;;;;5072526;28;20432;-59
2021/04/10 04:15:11;;;;;;;9.77;1.23;;;9.00;70.70;;;;;;5073236;28;20464;-59
2021/04/10 04:17:37;;;;;;;15.18;1.65;;;9.00;70.80;;;;;;5073256;28;20089;-60
2021/04/10 04:20:04;;;;;;;9.00;1.40;;;8.90;70.90;;;;;;5072194;28;20067;-59
2021/04/10 04:22:30;;;;;;;21.63;3.15;;;8.90;70.90;;;;;;5073527;28;20028;-59
2021/04/10 04:24:55;;;;;;;7.57;1.40;;;8.90;70.90;;;;;;5073121;28;20438;-59
2021/04/10 04:27:21;;;;;;;7.10;1.42;;;8.80;70.80;;;;;;5072531;28;20031;-59
2021/04/10 04:29:51;;;;;;;5.05;1.23;;;8.90;70.80;;;;;;5073016;28;20032;-59
2021/04/10 04:32:20;;;;;;;8.52;1.70;;;8.90;70.80;;;;;;5072796;28;20418;-59
2021/04/10 04:34:45;;;;;;;9.15;2.03;;;8.80;70.80;;;;;;5072042;28;20511;-60
2021/04/10 04:37:11;;;;;;;7.10;1.20;;;8.80;70.80;;;;;;5072877;28;20056;-60
2021/04/10 04:39:37;;;;;;;3.20;1.50;;;8.80;70.80;;;;;;5072846;28;20033;-59
2021/04/10 04:42:02;;;;;;;6.38;1.35;;;8.80;70.80;;;;;;5072084;28;20025;-60
2021/04/10 04:44:28;;;;;;;5.60;1.30;;;8.80;70.70;;;;;;5072892;28;20036;-60
2021/04/10 04:46:54;;;;;;;11.75;1.48;;;8.80;70.70;;;;;;5071021;28;20055;-60
2021/04/10 04:49:20;;;;;;;2.47;1.08;;;8.80;70.60;;;;;;5072566;28;20028;-60
2021/04/10 04:51:46;;;;;;;3.78;1.30;;;8.80;70.50;;;;;;5054747;28;20116;-61
2021/04/10 04:54:11;;;;;;;9.90;1.50;;;8.80;70.50;;;;;;5071561;28;20049;-60
2021/04/10 04:56:37;;;;;;;7.50;1.73;;;8.70;70.40;;;;;;5072578;28;20031;-60
2021/04/10 04:59:03;;;;;;;7.00;1.50;;;8.70;70.40;;;;;;5072498;28;20127;-59
2021/04/10 05:01:28;;;;;;;9.55;1.60;;;8.70;70.30;;;;;;5071797;28;20028;-59
2021/04/10 05:03:54;;;;;;;11.00;1.80;;;8.70;70.20;;;;;;5054577;28;20036;-59
2021/04/10 05:06:20;;;;;;;11.07;1.70;;;8.70;70.20;;;;;;5072353;28;20032;-60
2021/04/10 05:08:46;;;;;;;4.53;1.80;;;8.70;70.20;;;;;;5071981;28;20052;-60
2021/04/10 05:11:11;;;;;;;6.50;1.75;;;8.60;70.20;;;;;;5072371;28;20082;-59
2021/04/10 05:13:37;;;;;;;7.78;1.25;;;8.70;70.30;;;;;;5072551;28;20123;-60
2021/04/10 05:16:03;;;;;;;7.22;1.55;;;8.70;70.30;;;;;;5071709;28;20040;-59
2021/04/10 05:18:28;;;;;;;11.18;1.80;;;8.60;70.20;;;;;;5072335;28;20452;-60
2021/04/10 05:20:54;;;;;;;6.65;1.67;;;8.60;70.20;;;;;;5072286;28;20021;-59
2021/04/10 05:23:22;;;;;;;9.05;1.67;;;8.60;70.20;;;;;;5075597;28;20112;-59
2021/04/10 05:25:51;;;;;;;13.73;2.20;;;8.60;70.10;;;;;;5075906;28;20089;-59
2021/04/10 05:28:18;;;;;;;7.57;1.63;;;8.60;70.10;;;;;;5075792;28;20025;-60
2021/04/10 05:30:45;;;;;;;10.55;2.10;;;8.60;70.00;;;;;;5065876;28;20392;-59
2021/04/10 05:33:10;;;;;;;6.88;1.55;;;8.60;70.10;;;;;;5071017;28;20068;-59
2021/04/10 05:35:36;;;;;;;4.07;1.30;;;8.60;70.00;;;;;;5057838;28;20059;-59
2021/04/10 05:38:02;;;;;;;8.00;1.65;;;8.60;69.90;;;;;;5075293;28;20051;-59
2021/04/10 05:40:28;;;;;;;6.65;1.48;;;8.60;69.90;;;;;;5075424;28;20484;-60
2021/04/10 05:42:54;;;;;;;5.65;1.50;;;8.60;70.00;;;;;;5075558;28;20040;-59
2021/04/10 05:45:20;;;;;;;6.78;1.95;;;8.60;70.00;;;;;;5074739;28;20028;-59
2021/04/10 05:47:46;;;;;;;14.65;2.22;;;8.60;70.00;;;;;;5075438;28;20029;-59
2021/04/10 05:50:12;;;;;;;6.53;1.50;;;8.60;70.10;;;;;;5074898;28;20134;-59
2021/04/10 05:52:40;;;;;;;11.82;2.08;;;8.50;70.10;;;;;;5075036;28;20376;-59
2021/04/10 05:55:07;;;;;;;4.85;1.67;;;8.60;70.10;;;;;;5075711;28;20033;-60
2021/04/10 05:57:34;;;;;;;10.10;1.80;;;8.60;70.20;;;;;;5074533;28;20039;-59
2021/04/10 05:59:59;;;;;;;7.10;1.40;;;8.50;70.20;;;;;;5072519;28;20021;-59
2021/04/10 06:02:25;;;;;;;4.75;1.58;;;8.50;70.20;;;;;;5075125;28;20379;-60
2021/04/10 06:04:51;;;;;;;10.75;1.70;;;8.60;70.30;;;;;;5074765;28;20020;-60
2021/04/10 06:07:19;;;;;;;7.40;1.40;;;8.50;70.30;;;;;;5075364;28;20478;-59
2021/04/10 06:09:45;;;;;;;5.13;1.10;;;8.50;70.20;;;;;;5074979;28;20116;-59
2021/04/10 06:12:11;;;;;;;10.02;1.50;;;8.50;70.30;;;;;;5074613;28;20491;-59
2021/04/10 06:14:37;;;;;;;11.93;1.50;;;8.50;70.30;;;;;;5075119;28;20029;-60
2021/04/10 06:17:03;;;;;;;4.00;1.63;;;8.50;70.40;;;;;;5075593;28;20032;-59
2021/04/10 06:19:29;;;;;;;8.00;1.40;;;8.50;70.60;;;;;;5073631;28;20025;-59
2021/04/10 06:21:54;;;;;;;10.35;2.28;;;8.50;70.50;;;;;;5075172;28;20039;-60
2021/04/10 06:24:20;;;;;;;18.65;2.50;;;8.50;70.50;;;;;;5074893;28;20479;-59
2021/04/10 06:26:46;;;;;;;4.50;1.63;;;8.50;70.30;;;;;;5074264;28;20028;-59
2021/04/10 06:29:12;;;;;;;7.30;1.20;;;8.50;70.30;;;;;;5075153;28;20031;-60
2021/04/10 06:31:39;;;;;;;8.63;1.77;;;8.50;70.20;;;;;;5074850;28;20120;-59
2021/04/10 06:34:05;;;;;;;11.80;1.52;;;8.50;70.10;;;;;;5073156;28;20036;-60
2021/04/10 06:36:31;;;;;;;6.03;1.38;;;8.50;70.00;;;;;;5074232;28;20115;-60
2021/04/10 06:38:57;;;;;;;8.82;1.60;;;8.50;70.00;;;;;;5068158;28;20052;-60
2021/04/10 06:41:23;;;;;;;7.65;1.40;;;8.50;70.00;;;;;;5074099;28;20487;-60
2021/04/10 06:43:49;;;;;;;8.40;1.60;;;8.50;69.80;;;;;;5074439;28;20039;-59
2021/04/10 06:46:15;;;;;;;18.20;1.70;;;8.50;69.90;;;;;;5074336;28;20036;-60
2021/04/10 06:48:43;;;;;;;5.32;1.10;;;8.50;70.00;;;;;;5074041;28;20024;-60
2021/04/10 06:51:11;;;;;;;4.28;1.75;;;8.50;70.10;;;;;;5074172;28;20473;-61
2021/04/10 06:53:44;;;;;;;12.25;2.10;;;8.50;70.20;;;;;;5073404;28;20052;-59
2021/04/10 06:56:16;;;;;;;15.13;2.85;;;8.50;69.90;;;;;;5060235;28;20357;-59
2021/04/10 06:59:13;;;;;;;11.57;1.80;;;8.50;69.80;;;;;;5074611;28;20036;-59
2021/04/10 07:01:40;;;;;;;10.15;1.45;;;8.50;69.80;;;;;;5073606;28;20379;-59
2021/04/10 07:04:06;;;;;;;8.77;1.85;;;8.50;69.70;;;;;;5073319;28;20039;-59
2021/04/10 07:06:32;;;;;;;13.68;1.58;;;8.50;69.60;;;;;;5064076;28;20055;-59
2021/04/10 07:08:58;;;;;;;7.07;1.40;;;8.50;69.60;;;;;;5073326;28;20028;-59
2021/04/10 07:11:24;;;;;;;5.90;1.70;;;8.50;69.70;;;;;;5074544;28;20357;-59
2021/04/10 07:13:50;;;;;;;9.57;1.30;;;8.50;69.70;;;;;;5074566;28;20028;-59
2021/04/10 07:16:16;;;;;;;7.28;1.10;;;8.50;69.60;;;;;;5073390;28;20028;-60
2021/04/10 07:18:43;;;;;;;4.30;1.17;;;8.50;70.00;;;;;;5074070;28;20482;-59
2021/04/10 07:21:26;;;;;;;10.10;1.38;;;8.50;70.20;;;;;;5073997;28;20035;-59
2021/04/10 07:23:54;;;;;;;5.47;1.58;;;8.50;69.70;;;;;;5073815;28;20048;-59
2021/04/10 07:26:41;;;;;;;7.90;1.42;;;8.50;69.40;;;;;;5074033;28;20036;-63
2021/04/10 07:29:29;;;;;;;11.80;1.52;;;8.50;69.40;;;;;;5073391;28;20107;-59
2021/04/10 07:31:55;;;;;;;7.00;1.77;;;8.50;69.30;;;;;;5072976;28;20047;-59
2021/04/10 07:34:21;;;;;;;5.30;1.20;;;8.50;69.30;;;;;;5073194;28;20035;-59
2021/04/10 07:37:00;;;;;;;8.82;1.75;;;8.50;69.10;;;;;;5073095;28;20107;-59
2021/04/10 07:39:26;;;;;;;10.23;1.70;;;8.50;69.00;;;;;;5074241;28;20028;-60
2021/04/10 07:42:03;;;;;;;3.20;1.10;;;8.60;68.90;;;;;;5070967;28;20036;-59
2021/04/10 07:44:40;;;;;;;5.70;1.30;;;8.60;68.20;;;;;;5064865;28;20521;-59
2021/04/10 07:47:09;;;;;;;7.38;1.75;;;8.50;68.00;;;;;;5067566;28;20051;-59
2021/04/10 07:49:38;;;;;;;4.80;1.15;;;8.60;68.40;;;;;;5068739;28;20464;-59
2021/04/10 07:52:05;;;;;;;13.63;1.70;;;8.60;68.10;;;;;;5068046;28;20033;-59
2021/04/10 07:54:39;;;;;;;9.82;1.27;;;8.60;67.60;;;;;;5065448;28;20137;-59
2021/04/10 07:57:08;;;;;;;8.73;1.85;;;8.60;68.10;;;;;;5061730;28;20361;-62
2021/04/10 07:59:46;;;;;;;11.13;1.85;;;8.60;68.10;;;;;;5073341;28;20090;-60
2021/04/10 08:02:18;;;;;;;12.25;2.25;;;8.60;68.30;;;;;;5073332;28;20060;-59
2021/04/10 08:04:58;;;;;;;6.97;1.48;;;8.70;68.80;;;;;;5071448;28;20032;-60
2021/04/10 08:07:25;;;;;;;6.72;1.35;;;8.70;68.20;;;;;;5069836;28;20032;-62
2021/04/10 08:10:06;;;;;;;11.65;1.50;;;8.70;69.20;;;;;;5071255;28;20025;-62
2021/04/10 08:12:37;;;;;;;7.22;1.98;;;8.70;68.70;;;;;;5071998;28;20041;-60
2021/04/10 08:15:08;;;;;;;12.48;1.30;;;8.70;69.00;;;;;;5067168;28;20029;-60
2021/04/10 08:17:41;;;;;;;9.20;1.73;;;8.70;69.10;;;;;;5057745;28;20036;-59
2021/04/10 08:20:30;;;;;;;6.72;1.38;;;8.70;69.10;;;;;;5060633;28;20021;-60
2021/04/10 08:23:18;;;;;;;6.20;1.00;;;8.70;68.70;;;;;;5059623;28;20052;-61
2021/04/10 08:25:45;;;;;;;9.80;1.30;;;8.80;68.60;;;;;;5065520;28;20043;-60
2021/04/10 08:28:11;;;;;;;8.32;1.60;;;8.80;69.20;;;;;;5054144;28;20594;-60
2021/04/10 08:30:37;;;;;;;7.85;1.55;;;8.80;68.90;;;;;;5054392;28;20040;-60
2021/04/10 08:33:03;;;;;;;11.43;1.77;;;8.80;69.40;;;;;;5037722;28;20040;-60
2021/04/10 08:35:29;;;;;;;7.47;1.50;;;8.80;68.50;;;;;;5055100;28;20029;-60
2021/04/10 08:37:59;;;;;;;11.25;1.80;;;8.80;68.30;;;;;;5057743;28;20463;-60
2021/04/10 08:40:27;;;;;;;4.72;1.77;;;8.90;68.70;;;;;;5058217;28;20060;-60
2021/04/10 08:42:58;;;;;;;7.78;1.75;;;8.90;68.40;;;;;;5057208;28;20067;-60
2021/04/10 08:45:31;;;;;;;3.83;0.80;;;8.90;67.80;;;;;;5058246;28;20032;-59
2021/04/10 08:48:06;;;;;;;6.28;1.45;;;9.00;68.00;;;;;;5057221;28;20468;-59
2021/04/10 08:50:35;;;;;;;10.18;1.83;;;9.00;67.60;;;;;;5052205;28;20045;-60
2021/04/10 08:53:08;;;;;;;9.23;2.28;;;9.10;67.90;;;;;;5054929;28;20057;-59
2021/04/10 08:55:34;;;;;;;4.28;0.98;;;9.10;67.80;;;;;;5059304;28;20069;-61
2021/04/10 08:58:20;;;;;;;6.65;1.20;;;9.10;68.60;;;;;;5055592;28;20053;-62
2021/04/10 09:00:55;;;;;;;9.82;1.58;;;9.20;68.00;;;;;;5052695;28;21335;-61
2021/04/10 09:03:41;;;;;;;8.30;1.40;;;9.20;67.50;;;;;;5056401;28;20021;-60
2021/04/10 09:06:11;;;;;;;7.18;1.40;;;9.20;67.50;;;;;;5049788;28;20025;-62
2021/04/10 09:08:37;;;;;;;4.75;1.10;;;9.20;67.00;;;;;;5054599;28;20021;-61
2021/04/10 09:11:04;;;;;;;5.70;1.30;;;9.30;66.70;;;;;;5057475;28;20037;-61
2021/04/10 09:13:32;;;;;;;12.77;1.65;;;9.20;67.20;;;;;;5070064;28;20051;-61
2021/04/10 09:16:20;;;;;;;1.02;0.60;;;9.30;67.10;;;;;;5071159;28;20063;-60
2021/04/10 09:18:57;;;;;;;10.43;1.45;;;9.30;67.80;;;;;;5060183;28;20059;-61
2021/04/10 09:21:25;;;;;;;0.35;0.35;;;9.40;68.20;;;;;;5068435;28;20040;-61
2021/04/10 09:23:51;;;;;;;5.70;1.33;;;9.40;68.50;;;;;;5067725;28;20107;-60
2021/04/10 09:26:19;;;;;;;8.27;1.23;;;9.40;67.90;;;;;;5069970;28;20392;-61
2021/04/10 09:28:54;;;;;;;10.57;1.40;;;9.40;66.60;;;;;;5067331;28;20052;-61
2021/04/10 09:31:47;;;;;;;4.38;1.50;;;9.50;66.70;;;;;;5070459;28;20060;-61
2021/04/10 09:34:44;;;;;;;4.30;1.25;;;9.50;66.80;;;;;;5070442;28;20032;-60
2021/04/10 09:37:10;;;;;;;4.47;0.90;;;9.50;65.90;;;;;;5064514;28;20032;-60
2021/04/10 09:40:19;;;;;;;12.27;2.15;;;9.60;65.90;;;;;;5070103;28;20065;-61
2021/04/10 09:42:47;;;;;;;2.95;1.23;;;9.60;65.50;;;;;;5065208;28;20111;-60
2021/04/10 09:45:16;;;;;;;9.35;1.77;;;9.70;66.50;;;;;;5070198;28;20476;-61
2021/04/10 09:47:57;;;;;;;6.88;1.45;;;9.70;65.50;;;;;;5070326;28;20025;-62
2021/04/10 09:50:24;;;;;;;4.15;1.13;;;9.80;64.70;;;;;;5052920;28;20036;-61
2021/04/10 09:52:59;;;;;;;5.07;1.45;;;9.80;66.00;;;;;;5070642;28;20169;-61
2021/04/10 09:55:27;;;;;;;5.25;1.05;;;9.80;64.70;;;;;;5071386;28;20065;-61
2021/04/10 09:58:00;;;;;;;4.03;1.00;;;9.90;64.50;;;;;;5070590;28;20027;-61
2021/04/10 10:00:26;;;;;;;;;;;9.90;65.30;;;;;;5053983;28;20514;-61
2021/04/10 10:02:53;;;;;;;9.82;2.08;;;9.90;66.60;;;;;;5070750;28;20352;-61
2021/04/10 10:05:21;;;;;;;9.93;1.52;;;9.90;65.20;;;;;;5070716;28;20115;-60
2021/04/10 10:07:47;;;;;;;4.47;1.10;;;9.90;64.30;;;;;;5071992;28;20029;-61
2021/04/10 10:10:14;;;;;;;4.28;1.13;;;9.90;63.70;;;;;;5075066;28;20623;-61
2021/04/10 10:12:40;;;;;;;5.88;1.48;;;9.90;63.20;;;;;;5074213;28;20094;-62
2021/04/10 10:15:27;;;;;;;7.65;1.67;;;10.00;64.00;;;;;;5075224;28;20106;-60
2021/04/10 10:17:52;;;;;;;10.95;3.08;;;10.00;63.70;;;;;;5073501;28;20039;-59
2021/04/10 10:20:18;;;;;;;9.30;1.67;;;10.00;64.70;;;;;;5074897;28;20025;-60
2021/04/10 10:22:44;;;;;;;6.40;1.58;;;10.00;65.60;;;;;;5072324;28;20020;-62
2021/04/10 10:25:11;;;;;;;4.07;1.15;;;10.00;64.90;;;;;;5073501;28;20044;-59
2021/04/10 10:27:40;;;;;;;4.70;1.15;;;10.10;65.40;;;;;;5074393;28;20043;-60
2021/04/10 10:30:17;;;;;;;6.53;1.20;;;10.10;65.20;;;;;;5074619;28;20090;-61
2021/04/10 10:32:46;;;;;;;8.98;1.13;;;10.20;65.40;;;;;;5073384;28;20131;-60
2021/04/10 10:35:13;;;;;;;10.27;1.38;;;10.20;65.30;;;;;;5074268;28;20020;-61
2021/04/10 10:37:39;;;;;;;5.15;1.10;;;10.20;65.00;;;;;;5074193;28;20106;-60
2021/04/10 10:40:06;;;;;;;8.60;1.27;;;10.30;64.40;;;;;;5073751;28;20479;-60
2021/04/10 10:42:32;;;;;;;8.38;1.70;;;10.30;65.30;;;;;;5074214;28;20028;-60
2021/04/10 10:44:57;;;;;;;7.10;1.30;;;10.30;65.20;;;;;;5074000;28;20107;-60
2021/04/10 10:47:27;;;;;;;5.95;1.33;;;10.30;64.30;;;;;;5073094;28;20021;-60
2021/04/10 10:49:56;;;;;;;5.15;0.90;;;10.30;63.00;;;;;;5073446;28;20032;-60
2021/04/10 10:52:21;;;;;;;1.27;0.70;;;10.40;63.90;;;;;;5072324;28;20365;-60
2021/04/10 10:54:48;;;;;;;4.03;1.13;;;10.30;65.80;;;;;;5058934;28;20124;-60
2021/04/10 10:57:17;;;;;;;4.03;0.90;;;10.40;65.70;;;;;;5073272;28;20035;-62
2021/04/10 10:59:44;;;;;;;3.85;1.13;;;10.40;65.50;;;;;;5066357;28;20033;-60
2021/04/10 11:02:17;;;;;;;4.00;0.90;;;10.40;64.50;;;;;;5062211;28;20107;-60
2021/04/10 11:04:43;;;;;;;5.05;1.45;;;10.40;64.20;;;;;;5061062;28;20830;-60
2021/04/10 11:07:12;;;;;;;15.27;1.50;;;10.40;65.00;;;;;;5054468;28;20045;-61
2021/04/10 11:09:40;;;;;;;3.30;0.90;;;10.40;63.80;;;;;;5051622;28;20029;-60
2021/04/10 11:12:16;;;;;;;3.00;1.00;;;10.50;64.60;;;;;;5052774;28;20045;-60
2021/04/10 11:14:47;;;;;;;6.97;1.23;;;10.50;65.10;;;;;;5053004;28;21079;-60
2021/04/10 11:17:27;;;;;;;7.55;1.00;;;10.50;64.90;;;;;;5051440;28;20353;-61
2021/04/10 11:19:52;;;;;;;4.63;1.10;;;10.50;63.70;;;;;;5052367;28;20032;-61
2021/04/10 11:22:18;;;;;;;8.82;2.03;;;10.60;63.60;;;;;;5051889;28;20048;-60
2021/04/10 11:24:49;;;;;;;5.38;1.10;;;10.50;63.30;;;;;;5052660;28;20025;-60
2021/04/10 11:27:21;;;;;;;1.13;0.80;;;10.60;63.70;;;;;;5050897;28;20086;-59
2021/04/10 11:29:59;;;;;;;5.25;1.27;;;10.60;63.40;;;;;;5054462;28;20033;-62
2021/04/10 11:32:31;;;;;;;9.15;0.98;;;10.60;64.00;;;;;;5052409;28;20073;-60
2021/04/10 11:35:05;;;;;;;3.27;0.90;;;10.60;64.40;;;;;;5057129;28;20024;-62
2021/04/10 11:37:31;;;;;;;3.38;0.98;;;10.60;64.60;;;;;;5053751;28;20912;-60
2021/04/10 11:40:30;;;;;;;5.25;1.20;;;10.70;64.60;;;;;;5057288;28;20115;-60
2021/04/10 11:42:59;;;;;;;5.30;1.00;;;10.70;65.40;;;;;;5017963;28;20036;-60
2021/04/10 11:45:36;;;;;;;2.13;0.93;;;10.70;64.40;;;;;;5056263;28;20040;-63
2021/04/10 11:48:14;;;;;;;5.80;1.23;;;10.80;64.20;;;;;;5056651;28;20075;-63
2021/04/10 11:50:46;;;;;;;7.03;1.13;;;10.80;64.90;;;;;;5049184;28;20090;-64
2021/04/10 11:53:14;;;;;;;4.00;0.93;;;10.80;64.60;;;;;;5050454;28;20049;-60
2021/04/10 11:55:40;;;;;;;2.05;0.90;;;10.80;65.80;;;;;;5051719;28;20029;-60
2021/04/10 11:58:06;;;;;;;4.78;1.20;;;10.80;65.10;;;;;;5052067;28;20025;-60
2021/04/10 12:00:32;;;;;;;6.47;1.08;;;10.80;66.10;;;;;;5049611;28;20032;-60
2021/04/10 12:03:10;;;;;;;5.22;0.90;;;10.90;65.30;;;;;;5034122;28;20545;-60
2021/04/10 12:05:38;;;;;;;6.55;1.20;;;10.90;64.60;;;;;;5052349;28;20392;-60
2021/04/10 12:08:07;;;;;;;2.35;0.90;;;10.90;65.70;;;;;;5051355;28;20021;-60
2021/04/10 12:10:34;;;;;;;2.10;0.90;;;10.90;65.40;;;;;;5050680;28;20044;-60
2021/04/10 12:13:00;;;;;;;4.28;1.00;;;11.00;66.60;;;;;;5035970;28;20377;-60
2021/04/10 12:15:26;;;;;;;6.80;1.73;;;10.90;68.10;;;;;;5051560;28;20029;-60
2021/04/10 12:17:52;;;;;;;3.80;1.33;;;11.00;66.00;;;;;;5050421;28;20036;-61
2021/04/10 12:20:18;;;;;;;7.45;1.13;;;11.00;66.60;;;;;;5052883;28;20052;-62
2021/04/10 12:22:47;;;;;;;2.30;0.60;;;11.10;66.90;;;;;;5051863;28;20028;-62
2021/04/10 12:25:14;;;;;;;3.70;1.17;;;11.10;68.00;;;;;;5049597;28;20021;-62
2021/04/10 12:27:39;;;;;;;2.65;0.90;;;11.10;66.50;;;;;;5049639;28;20044;-59
2021/04/10 12:30:06;;;;;;;1.88;0.70;;;11.10;66.50;;;;;;5050810;28;20479;-59
2021/04/10 12:32:32;;;;;;;2.25;1.10;;;11.20;68.30;;;;;;5049573;28;20077;-59
2021/04/10 12:34:58;;;;;;;3.40;0.93;;;11.10;67.50;;;;;;5050166;28;20435;-59
2021/04/10 12:37:24;;;;;;;4.07;1.35;;;11.10;67.50;;;;;;5051996;28;20025;-58
2021/04/10 12:39:50;;;;;;;2.88;0.73;;;11.10;66.40;;;;;;5049960;28;20029;-58
2021/04/10 12:42:16;;;;;;;7.07;1.30;;;11.20;67.00;;;;;;5048531;28;20033;-60
2021/04/10 12:44:42;;;;;;;1.85;1.50;;;11.20;67.10;;;;;;5048929;28;20125;-60
2021/04/10 12:47:13;;;;;;;7.53;1.35;;;11.20;66.50;;;;;;5032199;28;20108;-60
2021/04/10 12:49:38;;;;;;;6.97;1.08;;;11.20;67.40;;;;;;5052104;28;20048;-61
2021/04/10 12:52:04;;;;;;;3.35;0.98;;;11.20;67.20;;;;;;5049064;28;20060;-59
2021/04/10 12:54:30;;;;;;;2.63;0.95;;;11.20;66.90;;;;;;5051143;28;20049;-61
2021/04/10 12:56:55;;;;;;;6.57;0.88;;;11.20;67.10;;;;;;5050088;28;20029;-60
2021/04/10 12:59:21;;;;;;;9.48;1.17;;;11.20;68.10;;;;;;5049772;28;20103;-59
2021/04/10 13:01:47;;;;;;;7.32;0.98;;;11.20;68.00;;;;;;5050155;28;20035;-59
2021/04/10 13:04:12;;;;;;;2.33;1.00;;;11.30;67.80;;;;;;5051241;28;20082;-60
2021/04/10 13:06:38;;;;;;;7.63;1.67;;;11.20;67.10;;;;;;5050421;28;20070;-60